Time;durP1;ratioP1;P1;durP2;ratioP2;P2;SDS_P1;SDS_P2;PMS_P1;PMS_P2;Temp;Humidity;BMP_temperature;BMP_pressure;BME280_temperature;BME280_humidity;BME280_pressure;Samples;Min_cycle;Max_cycle;Signal;HPM_P1;HPM_P2
2022/02/23 00:00:38;;;;;;;30.58;4.15;;;;;;;6.24;82.58;102139.97;5054178;28;20029;-55
2022/02/23 00:03:03;;;;;;;25.27;3.13;;;;;;;6.25;82.20;102136.34;5038240;28;20128;-52
2022/02/23 00:05:28;;;;;;;35.28;3.83;;;;;;;6.26;81.95;102146.91;5050919;28;20427;-52
2022/02/23 00:07:54;;;;;;;34.72;3.83;;;;;;;6.28;81.48;102155.66;5046582;28;20032;-54
2022/02/23 00:10:19;;;;;;;32.70;4.30;;;;;;;6.31;81.09;102152.75;5034880;28;20033;-54
2022/02/23 00:12:44;;;;;;;40.00;3.78;;;;;;;6.34;81.04;102155.16;5035460;28;20083;-52
2022/02/23 00:15:10;;;;;;;30.52;4.10;;;;;;;6.33;81.29;102166.00;5034858;28;20065;-53
2022/02/23 00:17:36;;;;;;;27.73;3.95;;;;;;;6.31;81.27;102166.13;5035672;28;20421;-54
2022/02/23 00:20:04;;;;;;;27.70;4.40;;;;;;;6.31;81.46;102165.28;5054014;28;20037;-52
2022/02/23 00:22:32;;;;;;;19.50;2.50;;;;;;;6.30;81.36;102167.09;5054860;28;20056;-52
2022/02/23 00:24:57;;;;;;;21.15;3.15;;;;;;;6.30;81.43;102172.44;5044856;28;20428;-54
2022/02/23 00:27:22;;;;;;;30.35;3.58;;;;;;;6.31;81.33;102181.31;5034470;28;20080;-53
2022/02/23 00:29:48;;;;;;;31.40;3.45;;;;;;;6.32;81.18;102180.34;5049604;28;20095;-53
2022/02/23 00:32:13;;;;;;;28.27;2.83;;;;;;;6.30;81.27;102185.81;5054517;28;20032;-55
2022/02/23 00:34:38;;;;;;;37.15;3.95;;;;;;;6.28;81.40;102182.41;5047263;28;20040;-54
2022/02/23 00:37:04;;;;;;;38.42;3.72;;;;;;;6.28;81.15;102181.56;5034552;28;20029;-53
2022/02/23 00:39:29;;;;;;;32.17;3.53;;;;;;;6.30;80.63;102190.31;5038279;28;20116;-53
2022/02/23 00:41:54;;;;;;;24.85;2.63;;;;;;;6.33;80.22;102184.72;5046823;28;20041;-53
2022/02/23 00:44:20;;;;;;;30.20;3.13;;;;;;;6.36;79.86;102188.00;5053295;28;20465;-52
2022/02/23 00:46:45;;;;;;;29.63;2.83;;;;;;;6.31;80.15;102183.97;5054150;28;20491;-53
2022/02/23 00:49:11;;;;;;;28.15;3.15;;;;;;;6.32;80.15;102191.91;5052910;28;20460;-53
2022/02/23 00:51:36;;;;;;;29.42;3.13;;;;;;;6.32;80.23;102183.88;5054019;28;20225;-54
2022/02/23 00:54:02;;;;;;;19.77;2.67;;;;;;;6.35;79.97;102180.13;5051706;28;20040;-53
2022/02/23 00:56:27;;;;;;;29.23;3.97;;;;;;;6.30;80.34;102182.28;5034185;28;20503;-52
2022/02/23 00:58:52;;;;;;;22.15;2.35;;;;;;;6.25;80.72;102181.81;5034017;28;20052;-54
2022/02/23 01:01:18;;;;;;;26.85;3.25;;;;;;;6.20;81.04;102184.84;5035242;28;20033;-52
2022/02/23 01:03:44;;;;;;;32.92;4.03;;;;;;;6.21;81.00;102191.88;5032746;28;20109;-54
2022/02/23 01:06:09;;;;;;;35.95;3.50;;;;;;;6.19;81.48;102195.63;5034240;28;20052;-55
2022/02/23 01:08:35;;;;;;;27.27;3.10;;;;;;;6.15;81.81;102198.56;5048897;28;20091;-53
2022/02/23 01:11:00;;;;;;;22.85;2.65;;;;;;;6.11;82.13;102202.44;5038549;28;20081;-52
2022/02/23 01:13:26;;;;;;;36.38;3.92;;;;;;;6.08;82.57;102209.84;5034015;28;20037;-54
2022/02/23 01:15:51;;;;;;;25.00;4.20;;;;;;;6.04;83.04;102213.72;5049022;28;20068;-54
2022/02/23 01:18:17;;;;;;;26.90;3.28;;;;;;;6.01;83.30;102211.31;5041603;28;20060;-54
2022/02/23 01:20:42;;;;;;;38.92;4.28;;;;;;;6.02;83.75;102213.00;5043005;28;20041;-52
2022/02/23 01:23:08;;;;;;;30.73;4.38;;;;;;;5.98;83.85;102217.75;5052557;28;20112;-53
2022/02/23 01:25:34;;;;;;;45.60;3.42;;;;;;;5.92;83.97;102213.69;5040338;28;20096;-54
2022/02/23 01:28:01;;;;;;;34.63;3.65;;;;;;;5.92;84.26;102219.03;5042232;28;20029;-53
2022/02/23 01:30:26;;;;;;;36.83;3.42;;;;;;;5.96;83.86;102224.16;5048807;28;20629;-53
2022/02/23 01:32:52;;;;;;;36.13;3.53;;;;;;;5.92;84.08;102226.16;5033675;28;20113;-54
2022/02/23 01:35:17;;;;;;;23.42;3.35;;;;;;;5.94;84.12;102241.16;5043469;28;20068;-55
2022/02/23 01:37:43;;;;;;;29.38;3.05;;;;;;;5.96;84.07;102232.19;5051580;28;20033;-54
2022/02/23 01:40:09;;;;;;;23.25;3.63;;;;;;;5.95;84.04;102239.34;5045514;28;20067;-54
2022/02/23 01:42:34;;;;;;;29.48;3.58;;;;;;;5.96;84.04;102235.69;5033185;28;20038;-54
2022/02/23 01:44:59;;;;;;;32.47;3.75;;;;;;;5.98;84.14;102251.59;5040625;28;20067;-54
2022/02/23 01:47:25;;;;;;;31.38;3.75;;;;;;;5.97;83.93;102241.91;5048481;28;20072;-54
2022/02/23 01:49:51;;;;;;;27.25;3.25;;;;;;;5.96;83.92;102245.53;5032735;28;20037;-52
2022/02/23 01:52:16;;;;;;;36.45;4.20;;;;;;;5.93;83.95;102251.94;5035883;28;20041;-53
2022/02/23 01:54:41;;;;;;;30.02;3.00;;;;;;;5.92;84.00;102256.44;5052306;28;20392;-54
2022/02/23 01:57:07;;;;;;;30.38;4.30;;;;;;;5.95;84.08;102255.38;5051545;28;20059;-54
2022/02/23 01:59:33;;;;;;;39.38;4.00;;;;;;;5.94;84.26;102259.84;5032782;28;20021;-52
2022/02/23 02:01:59;;;;;;;24.65;3.10;;;;;;;5.97;84.30;102263.28;5034127;28;20041;-54
2022/02/23 02:04:25;;;;;;;28.75;3.38;;;;;;;5.92;84.18;102253.78;5050210;28;20040;-53
2022/02/23 02:06:51;;;;;;;40.50;3.90;;;;;;;5.91;84.64;102264.56;5032695;28;20059;-55
2022/02/23 02:09:20;;;;;;;22.00;2.95;;;;;;;5.88;84.70;102273.66;5048357;28;20118;-54
2022/02/23 02:11:45;;;;;;;29.75;4.00;;;;;;;5.88;84.61;102271.00;5032268;28;20188;-54
2022/02/23 02:14:10;;;;;;;39.08;3.58;;;;;;;5.86;84.71;102272.91;5048926;28;20115;-53
2022/02/23 02:16:36;;;;;;;31.40;3.50;;;;;;;5.88;84.81;102278.16;5032786;28;20084;-51
2022/02/23 02:19:03;;;;;;;27.05;3.75;;;;;;;5.87;84.58;102273.75;5046265;28;20040;-55
2022/02/23 02:21:30;;;;;;;25.70;2.83;;;;;;;5.84;85.03;102269.50;5036237;28;20506;-54
2022/02/23 02:23:55;;;;;;;31.42;4.38;;;;;;;5.81;85.16;102264.41;5031409;28;20135;-54
2022/02/23 02:26:21;;;;;;;23.90;2.80;;;;;;;5.76;85.17;102266.56;5048327;28;20112;-54
2022/02/23 02:28:46;;;;;;;37.20;4.00;;;;;;;5.76;85.47;102265.72;5051435;28;20048;-54
2022/02/23 02:31:11;;;;;;;25.20;2.85;;;;;;;5.72;85.80;102275.78;5050588;28;20468;-55
2022/02/23 02:33:37;;;;;;;30.83;3.17;;;;;;;5.70;86.00;102261.69;5044332;28;20075;-51
2022/02/23 02:36:02;;;;;;;21.88;2.65;;;;;;;5.70;85.86;102269.72;5037176;28;20547;-54
2022/02/23 02:38:27;;;;;;;36.35;4.57;;;;;;;5.70;85.39;102273.22;5042481;28;20373;-53
2022/02/23 02:40:53;;;;;;;29.40;2.85;;;;;;;5.69;85.61;102268.00;5039241;28;20028;-53
2022/02/23 02:43:19;;;;;;;30.83;3.50;;;;;;;5.67;85.60;102277.97;5041838;28;20088;-53
2022/02/23 02:45:44;;;;;;;21.92;2.95;;;;;;;5.67;85.32;102276.13;5048670;28;20043;-52
2022/02/23 02:48:09;;;;;;;32.20;3.63;;;;;;;5.68;85.40;102271.63;5052098;28;20036;-51
2022/02/23 02:50:35;;;;;;;21.67;3.08;;;;;;;5.68;85.30;102275.16;5050306;28;20025;-52
2022/02/23 02:53:00;;;;;;;25.73;3.47;;;;;;;5.67;85.70;102284.13;5032056;28;20036;-52
2022/02/23 02:55:25;;;;;;;24.52;2.95;;;;;;;5.64;85.78;102279.03;5041097;28;20171;-54
2022/02/23 02:57:51;;;;;;;34.28;3.05;;;;;;;5.60;86.31;102288.22;5052038;28;20029;-53
2022/02/23 03:00:18;;;;;;;25.15;3.45;;;;;;;5.60;86.34;102287.38;5046414;28;20037;-54
2022/02/23 03:02:43;;;;;;;29.50;3.58;;;;;;;5.58;86.61;102290.19;5050947;28;20110;-54
2022/02/23 03:05:08;;;;;;;35.03;4.38;;;;;;;5.55;87.07;102298.41;5044848;28;20053;-54
2022/02/23 03:07:34;;;;;;;39.85;3.60;;;;;;;5.55;87.42;102295.72;5046312;28;20068;-53
2022/02/23 03:09:59;;;;;;;34.53;4.78;;;;;;;5.54;87.32;102299.38;5035685;28;20026;-52
2022/02/23 03:12:26;;;;;;;38.95;5.18;;;;;;;5.51;87.54;102304.94;5043135;28;20049;-54
2022/02/23 03:14:51;;;;;;;31.20;3.55;;;;;;;5.47;87.90;102301.63;5052239;28;20029;-54
2022/02/23 03:17:17;;;;;;;26.65;3.15;;;;;;;5.46;88.34;102302.59;5039507;28;20052;-52
2022/02/23 03:19:42;;;;;;;24.98;3.28;;;;;;;5.44;88.70;102303.69;5032437;28;20021;-51
2022/02/23 03:22:07;;;;;;;29.92;4.55;;;;;;;5.41;89.00;102315.44;5032823;28;20037;-53
2022/02/23 03:24:32;;;;;;;27.33;2.78;;;;;;;5.38;89.27;102313.00;5032427;28;20037;-52
2022/02/23 03:26:58;;;;;;;27.45;2.53;;;;;;;5.36;89.25;102316.75;5036771;28;20049;-54
2022/02/23 03:29:23;;;;;;;26.27;3.50;;;;;;;5.35;89.41;102315.06;5032361;28;20025;-52
2022/02/23 03:31:48;;;;;;;29.67;3.38;;;;;;;5.34;89.35;102313.31;5046049;28;20036;-52
2022/02/23 03:34:14;;;;;;;29.25;3.25;;;;;;;5.33;89.20;102308.97;5056028;28;20348;-53
2022/02/23 03:36:39;;;;;;;34.92;2.88;;;;;;;5.32;89.39;102305.44;5045822;28;20464;-53
2022/02/23 03:39:05;;;;;;;23.02;3.30;;;;;;;5.31;89.09;102311.72;5036373;28;20102;-52
2022/02/23 03:41:30;;;;;;;23.75;3.28;;;;;;;5.32;88.82;102313.47;5036459;28;20130;-53
2022/02/23 03:43:55;;;;;;;22.30;3.58;;;;;;;5.35;88.56;102320.38;5036389;28;20037;-53
2022/02/23 03:46:21;;;;;;;21.33;4.38;;;;;;;5.33;88.41;102317.81;5044904;28;20472;-53
2022/02/23 03:48:46;;;;;;;28.75;3.20;;;;;;;5.31;88.13;102318.91;5056243;28;20025;-50
2022/02/23 03:51:13;;;;;;;31.30;3.20;;;;;;;5.28;88.37;102326.16;5055256;28;20391;-53
2022/02/23 03:53:38;;;;;;;31.33;3.00;;;;;;;5.30;88.42;102328.72;5056087;28;20025;-55
2022/02/23 03:56:05;;;;;;;16.38;2.40;;;;;;;5.29;88.13;102327.00;5050509;28;20128;-52
2022/02/23 03:58:30;;;;;;;36.03;3.20;;;;;;;5.28;88.37;102330.66;5038847;28;20033;-54
2022/02/23 04:00:56;;;;;;;31.75;2.88;;;;;;;5.26;88.55;102332.56;5042121;28;20033;-52
2022/02/23 04:03:21;;;;;;;34.33;4.30;;;;;;;5.26;88.63;102333.41;5042157;28;20033;-55
2022/02/23 04:05:46;;;;;;;23.60;2.95;;;;;;;5.24;88.65;102337.19;5040966;28;20041;-53
2022/02/23 04:08:12;;;;;;;29.38;3.08;;;;;;;5.22;88.94;102336.44;5054580;28;20075;-54
2022/02/23 04:10:37;;;;;;;37.58;3.13;;;;;;;5.18;89.06;102338.44;5044717;28;20435;-54
2022/02/23 04:13:06;;;;;;;30.35;3.78;;;;;;;5.20;89.30;102341.03;5035776;28;20108;-53
2022/02/23 04:15:31;;;;;;;34.13;3.63;;;;;;;5.18;89.31;102348.28;5045365;28;20116;-52
2022/02/23 04:17:57;;;;;;;29.75;3.45;;;;;;;5.17;89.54;102350.09;5055291;28;20025;-53
2022/02/23 04:20:22;;;;;;;30.40;3.60;;;;;;;5.17;90.16;102350.09;5047101;28;20473;-54
2022/02/23 04:22:47;;;;;;;44.97;3.20;;;;;;;5.18;89.91;102349.13;5035533;28;20034;-53
2022/02/23 04:25:13;;;;;;;45.15;4.15;;;;;;;5.18;90.13;102346.47;5041285;28;20021;-53
2022/02/23 04:27:38;;;;;;;30.08;3.63;;;;;;;5.20;90.14;102352.56;5054664;28;20037;-55
2022/02/23 04:30:05;;;;;;;30.77;3.17;;;;;;;5.18;90.28;102356.28;5039885;28;20489;-52
2022/02/23 04:32:31;;;;;;;34.47;3.55;;;;;;;5.15;90.52;102354.69;5035401;28;20036;-52
2022/02/23 04:34:57;;;;;;;28.60;3.03;;;;;;;5.17;90.49;102357.25;5048758;28;20431;-52
2022/02/23 04:37:25;;;;;;;37.72;4.63;;;;;;;5.13;90.75;102348.59;5039649;28;20040;-53
2022/02/23 04:39:51;;;;;;;30.52;3.60;;;;;;;5.09;90.58;102356.97;5037938;28;20630;-53
2022/02/23 04:42:16;;;;;;;28.15;3.50;;;;;;;5.05;91.03;102357.19;5049376;28;20033;-54
2022/02/23 04:44:42;;;;;;;34.10;4.10;;;;;;;5.03;91.32;102356.44;5045117;28;20036;-53
2022/02/23 04:47:07;;;;;;;32.00;3.35;;;;;;;5.05;91.48;102357.19;5054196;28;20044;-53
2022/02/23 04:49:34;;;;;;;29.55;3.97;;;;;;;5.03;91.51;102358.25;5045470;28;20554;-52
2022/02/23 04:51:59;;;;;;;23.40;3.13;;;;;;;5.04;91.91;102355.47;5054469;28;20141;-54
2022/02/23 04:54:24;;;;;;;25.10;3.30;;;;;;;5.02;91.82;102356.53;5052860;28;20048;-52
2022/02/23 04:56:50;;;;;;;37.15;5.47;;;;;;;4.98;91.96;102349.72;5054646;28;20068;-52
2022/02/23 04:59:15;;;;;;;28.55;4.82;;;;;;;4.99;92.20;102352.25;5053901;28;20033;-53
2022/02/23 05:01:40;;;;;;;46.85;4.00;;;;;;;4.98;92.00;102355.06;5041800;28;20083;-52
2022/02/23 05:04:05;;;;;;;35.35;5.03;;;;;;;4.92;92.13;102356.31;5038019;28;20048;-51
2022/02/23 05:06:31;;;;;;;31.17;3.85;;;;;;;4.93;92.66;102358.03;5054689;28;20086;-53
2022/02/23 05:08:56;;;;;;;37.58;4.50;;;;;;;4.93;92.60;102362.53;5052556;28;20110;-54
2022/02/23 05:11:22;;;;;;;24.38;3.50;;;;;;;4.95;92.61;102360.59;5037659;28;20524;-52
2022/02/23 05:13:47;;;;;;;41.40;4.65;;;;;;;4.93;92.82;102362.53;5053569;28;20025;-53
2022/02/23 05:16:12;;;;;;;34.30;4.28;;;;;;;4.94;92.94;102370.41;5044481;28;20032;-51
2022/02/23 05:18:38;;;;;;;40.67;4.32;;;;;;;4.95;93.12;102364.13;5053887;28;20031;-53
2022/02/23 05:21:03;;;;;;;36.03;3.75;;;;;;;4.94;93.55;102369.56;5053470;28;20045;-52
2022/02/23 05:23:29;;;;;;;39.10;4.40;;;;;;;4.94;93.34;102369.56;5052197;28;20480;-51
2022/02/23 05:25:56;;;;;;;40.08;4.53;;;;;;;4.92;93.60;102372.31;5046764;28;20430;-54
2022/02/23 05:28:22;;;;;;;33.05;3.47;;;;;;;4.93;93.68;102382.06;5034424;28;20070;-54
2022/02/23 05:30:48;;;;;;;34.83;4.32;;;;;;;4.90;93.62;102374.28;5053602;28;20061;-53
2022/02/23 05:33:13;;;;;;;38.67;4.45;;;;;;;4.91;93.61;102378.63;5053742;28;20025;-54
2022/02/23 05:35:39;;;;;;;38.45;4.57;;;;;;;4.92;93.84;102371.47;5053272;28;20032;-52
2022/02/23 05:38:05;;;;;;;36.00;3.80;;;;;;;4.90;93.71;102378.72;5053626;28;20400;-52
2022/02/23 05:40:30;;;;;;;34.30;4.28;;;;;;;4.95;94.34;102379.25;5047399;28;20048;-51
2022/02/23 05:42:55;;;;;;;39.67;5.68;;;;;;;4.94;94.49;102375.75;5053855;28;20036;-53
2022/02/23 05:45:22;;;;;;;40.90;4.40;;;;;;;4.97;94.11;102380.00;5040046;28;20025;-52
2022/02/23 05:47:47;;;;;;;36.03;3.45;;;;;;;4.96;94.27;102379.16;5053058;28;20029;-53
2022/02/23 05:50:12;;;;;;;45.85;4.43;;;;;;;4.96;94.06;102378.31;5048091;28;20021;-53
2022/02/23 05:52:38;;;;;;;37.38;3.58;;;;;;;4.95;94.51;102382.81;5033867;28;20033;-54
2022/02/23 05:55:04;;;;;;;31.38;3.38;;;;;;;4.98;94.23;102382.59;5037391;28;20049;-51
2022/02/23 05:57:30;;;;;;;35.75;4.63;;;;;;;4.98;94.38;102389.75;5032477;28;20108;-51
2022/02/23 05:59:55;;;;;;;39.97;5.57;;;;;;;5.01;94.38;102385.03;5039588;28;20111;-54
2022/02/23 06:02:21;;;;;;;34.83;3.90;;;;;;;5.02;94.38;102389.41;5037984;28;20037;-53
2022/02/23 06:04:46;;;;;;;40.50;4.22;;;;;;;5.01;94.10;102389.53;5046284;28;20073;-53
2022/02/23 06:07:11;;;;;;;40.05;4.18;;;;;;;5.03;94.34;102385.78;5053696;28;20033;-53
2022/02/23 06:09:37;;;;;;;31.13;4.13;;;;;;;5.04;93.99;102394.63;5036937;28;20322;-52
2022/02/23 06:12:02;;;;;;;37.17;3.97;;;;;;;5.03;93.94;102391.13;5037105;28;20037;-55
2022/02/23 06:14:28;;;;;;;36.13;4.05;;;;;;;5.03;94.09;102385.78;5036863;28;20385;-53
2022/02/23 06:16:54;;;;;;;39.60;4.85;;;;;;;5.02;93.90;102391.22;5052303;28;20036;-54
2022/02/23 06:19:19;;;;;;;34.83;4.35;;;;;;;5.00;93.95;102386.00;5044314;28;20026;-53
2022/02/23 06:21:44;;;;;;;38.55;3.65;;;;;;;5.03;94.10;102390.28;5036760;28;20432;-52
2022/02/23 06:24:10;;;;;;;28.48;4.00;;;;;;;5.03;94.11;102391.13;5043643;28;20033;-55
2022/02/23 06:26:35;;;;;;;30.40;4.15;;;;;;;5.01;93.74;102390.38;5036531;28;20112;-57
2022/02/23 06:29:01;;;;;;;38.92;4.60;;;;;;;5.02;93.75;102389.41;5033178;28;20517;-54
2022/02/23 06:31:26;;;;;;;39.42;3.33;;;;;;;5.03;94.10;102391.13;5032442;28;20021;-53
2022/02/23 06:33:51;;;;;;;43.53;4.95;;;;;;;5.04;94.02;102392.81;5044376;28;20092;-54
2022/02/23 06:36:17;;;;;;;30.27;3.53;;;;;;;5.04;93.72;102390.16;5032856;28;20389;-54
2022/02/23 06:38:43;;;;;;;29.73;3.40;;;;;;;5.08;93.86;102393.44;5045019;28;20639;-52
2022/02/23 06:41:12;;;;;;;38.45;4.43;;;;;;;5.06;93.65;102390.91;5041338;28;20468;-55
2022/02/23 06:43:38;;;;;;;40.15;3.42;;;;;;;5.05;93.65;102394.53;5037123;28;20041;-55
2022/02/23 06:46:03;;;;;;;34.75;3.53;;;;;;;5.09;93.41;102399.66;5043011;28;20467;-55
2022/02/23 06:48:29;;;;;;;31.48;3.88;;;;;;;5.09;93.31;102399.66;5053390;28;20064;-53
2022/02/23 06:50:54;;;;;;;35.33;3.47;;;;;;;5.07;92.85;102405.94;5046818;28;20033;-55
2022/02/23 06:53:20;;;;;;;30.70;3.60;;;;;;;5.06;92.74;102401.56;5040421;28;20459;-55
2022/02/23 06:55:45;;;;;;;40.90;4.53;;;;;;;5.07;93.16;102395.25;5040852;28;20075;-53
2022/02/23 06:58:11;;;;;;;32.20;4.15;;;;;;;5.09;92.94;102389.00;5035279;28;20541;-54
2022/02/23 07:00:37;;;;;;;29.02;3.92;;;;;;;5.07;92.67;102392.59;5038327;28;20041;-54
2022/02/23 07:03:02;;;;;;;37.17;3.60;;;;;;;5.11;92.67;102389.69;5037481;28;20048;-54
2022/02/23 07:05:28;;;;;;;31.00;3.88;;;;;;;5.19;92.72;102390.03;5048711;28;20472;-55
2022/02/23 07:07:53;;;;;;;23.98;3.05;;;;;;;5.23;92.46;102394.19;5047006;28;20056;-54
2022/02/23 07:10:21;;;;;;;34.70;3.50;;;;;;;5.26;92.45;102393.97;5031938;28;20040;-52
2022/02/23 07:12:47;;;;;;;38.25;4.38;;;;;;;5.42;92.17;102394.56;5048299;28;20052;-54
2022/02/23 07:15:13;;;;;;;27.70;4.03;;;;;;;5.56;91.68;102398.09;5050922;28;20037;-53
2022/02/23 07:17:38;;;;;;;32.30;3.88;;;;;;;5.77;90.99;102401.88;5032093;28;20037;-54
2022/02/23 07:20:04;;;;;;;25.02;3.60;;;;;;;6.04;90.17;102398.16;5032568;28;20025;-56
2022/02/23 07:22:29;;;;;;;25.75;3.72;;;;;;;6.32;88.92;102403.13;5051343;28;20155;-51
2022/02/23 07:24:55;;;;;;;25.00;3.97;;;;;;;6.57;87.44;102412.81;5038199;28;20116;-54
2022/02/23 07:27:20;;;;;;;29.48;3.47;;;;;;;6.59;86.60;102404.69;5032497;28;20104;-54
2022/02/23 07:29:46;;;;;;;28.90;4.60;;;;;;;6.52;85.97;102406.09;5044005;28;20029;-54
2022/02/23 07:32:12;;;;;;;24.60;3.65;;;;;;;6.45;86.25;102411.09;5043370;28;20441;-55
2022/02/23 07:34:39;;;;;;;36.67;3.90;;;;;;;6.47;86.46;102410.94;5038269;28;20036;-53
2022/02/23 07:37:05;;;;;;;33.78;4.43;;;;;;;6.40;86.59;102409.69;5036034;28;20112;-55
2022/02/23 07:39:31;;;;;;;37.55;4.97;;;;;;;6.44;86.50;102412.03;5033732;28;20473;-55
2022/02/23 07:41:56;;;;;;;39.08;3.95;;;;;;;6.62;85.81;102416.97;5045073;28;20421;-50
2022/02/23 07:44:21;;;;;;;29.77;3.80;;;;;;;6.97;84.10;102419.59;5047219;28;20116;-54
2022/02/23 07:46:47;;;;;;;23.23;5.13;;;;;;;7.21;82.97;102412.31;5042168;28;20048;-55
2022/02/23 07:49:13;;;;;;;24.00;3.60;;;;;;;7.31;81.67;102422.28;5048914;28;20021;-55
2022/02/23 07:51:39;;;;;;;26.15;4.40;;;;;;;7.53;80.80;102421.41;5049808;28;20033;-56
2022/02/23 07:54:04;;;;;;;22.38;4.18;;;;;;;7.56;80.77;102416.69;5049787;28;20056;-55
2022/02/23 07:56:30;;;;;;;24.63;3.67;;;;;;;7.64;80.76;102413.38;5047473;28;20499;-55
2022/02/23 07:58:55;;;;;;;24.80;3.58;;;;;;;7.80;79.89;102423.72;5043843;28;20036;-55
2022/02/23 08:01:28;;;;;;;27.85;5.28;;;;;;;8.17;79.01;102420.69;5042660;28;20036;-56
2022/02/23 08:03:54;;;;;;;29.75;3.58;;;;;;;8.82;76.42;102413.41;5047113;28;20082;-57
2022/02/23 08:06:19;;;;;;;31.83;4.40;;;;;;;8.95;75.02;102417.63;5049804;28;20445;-54
2022/02/23 08:08:45;;;;;;;26.65;5.30;;;;;;;9.49;72.86;102420.13;5045131;28;20036;-55
2022/02/23 08:11:10;;;;;;;32.92;4.82;;;;;;;9.22;73.29;102413.50;5045194;28;20115;-55
2022/02/23 08:13:35;;;;;;;30.90;4.13;;;;;;;10.27;71.01;102416.63;5046468;28;20104;-54
2022/02/23 08:21:29;;;;;;;18.70;3.60;;;;;;;11.11;67.95;102418.63;5051144;28;20111;-56
2022/02/23 08:23:54;;;;;;;35.78;4.80;;;;;;;11.22;66.54;102404.13;5054121;28;20445;-55
2022/02/23 08:26:20;;;;;;;26.08;4.15;;;;;;;10.72;66.61;102421.41;5055266;28;20123;-55
2022/02/23 08:28:45;;;;;;;27.75;4.03;;;;;;;10.75;66.98;102404.94;5050057;28;20036;-53
2022/02/23 08:31:10;;;;;;;21.95;3.50;;;;;;;11.46;66.35;102413.53;5054188;28;20025;-57
2022/02/23 08:33:37;;;;;;;27.08;4.10;;;;;;;11.70;62.92;102415.66;5049599;28;20516;-54
2022/02/23 08:36:02;;;;;;;23.13;4.13;;;;;;;10.96;65.76;102418.22;5052153;28;20079;-53
2022/02/23 08:38:27;;;;;;;20.58;3.40;;;;;;;11.56;64.72;102409.78;5050270;28;20021;-53
2022/02/23 08:40:53;;;;;;;17.20;3.70;;;;;;;11.86;62.65;102414.00;5054456;28;20051;-56
2022/02/23 08:43:18;;;;;;;28.50;4.10;;;;;;;11.63;64.13;102416.25;5054186;28;20064;-54
2022/02/23 08:45:43;;;;;;;20.17;4.25;;;;;;;11.73;63.29;102409.97;5049092;28;20030;-55
2022/02/23 08:48:09;;;;;;;21.63;4.90;;;;;;;11.76;63.04;102410.50;5044006;28;20405;-54
2022/02/23 08:50:35;;;;;;;18.65;3.63;;;;;;;12.40;61.60;102419.44;5048101;28;20025;-55
2022/02/23 08:53:00;;;;;;;13.98;3.47;;;;;;;12.17;60.46;102415.53;5049964;28;20021;-54
2022/02/23 08:55:26;;;;;;;19.45;3.50;;;;;;;11.99;61.04;102413.66;5047949;28;20034;-55
2022/02/23 08:57:51;;;;;;;15.52;3.75;;;;;;;11.08;63.73;102410.81;5051419;28;20033;-55
2022/02/23 09:00:17;;;;;;;18.35;3.50;;;;;;;11.47;62.69;102413.34;5048065;28;20025;-55
2022/02/23 09:02:42;;;;;;;22.65;3.40;;;;;;;12.03;62.10;102409.66;5052105;28;20036;-54
2022/02/23 09:05:07;;;;;;;17.05;3.17;;;;;;;12.53;59.44;102402.81;5052759;28;20053;-55
2022/02/23 09:07:33;;;;;;;22.55;4.45;;;;;;;11.64;61.01;102404.47;5042798;28;20044;-55
2022/02/23 09:09:58;;;;;;;26.02;3.78;;;;;;;11.83;61.07;102416.16;5048207;28;20384;-55
2022/02/23 09:12:24;;;;;;;21.80;3.05;;;;;;;12.07;61.41;102419.13;5049206;28;20492;-55
2022/02/23 09:14:52;;;;;;;22.70;3.72;;;;;;;12.19;60.86;102413.50;5045376;28;20507;-55
2022/02/23 09:17:18;;;;;;;21.60;3.35;;;;;;;11.20;62.49;102415.03;5044966;28;20040;-55
2022/02/23 09:19:43;;;;;;;29.00;3.70;;;;;;;11.81;61.94;102412.75;5051076;28;20021;-53
2022/02/23 09:22:08;;;;;;;24.60;3.70;;;;;;;11.70;62.25;102421.06;5045458;28;20029;-55
2022/02/23 09:24:34;;;;;;;24.67;4.07;;;;;;;11.92;61.49;102415.25;5050944;28;20108;-53
2022/02/23 09:27:02;;;;;;;19.40;3.78;;;;;;;11.56;62.23;102425.94;5048353;28;20115;-54
2022/02/23 09:29:27;;;;;;;;;;;;;;;11.30;64.89;102414.16;5047736;28;20026;-54
2022/02/23 09:31:53;;;;;;;25.83;4.10;;;;;;;11.56;64.63;102420.56;5045506;28;19916;-55
2022/02/23 09:34:20;;;;;;;20.10;4.75;;;;;;;11.83;63.56;102413.44;5051910;28;20102;-55
2022/02/23 09:36:46;;;;;;;;;;;;;;;11.93;63.17;102422.38;5046650;28;20029;-56
2022/02/23 09:39:11;;;;;;;29.48;4.90;;;;;;;11.50;63.45;102426.53;5048008;28;19919;-54
2022/02/23 09:41:39;;;;;;;28.90;4.53;;;;;;;11.29;64.35;102418.69;5046407;28;20033;-54
2022/02/23 09:44:05;;;;;;;21.67;3.95;;;;;;;10.93;65.42;102409.59;5044262;28;20033;-55
2022/02/23 09:46:30;;;;;;;24.88;5.03;;;;;;;11.19;65.16;102417.88;5047852;28;20036;-56
2022/02/23 09:48:58;;;;;;;32.30;5.03;;;;;;;10.91;65.31;102415.13;5047787;28;20107;-55
2022/02/23 09:51:23;;;;;;;27.25;5.03;;;;;;;11.51;64.50;102430.09;5045820;28;20032;-55
2022/02/23 09:53:55;;;;;;;30.98;5.05;;;;;;;11.33;64.15;102408.47;5048821;28;20044;-53
2022/02/23 09:56:20;;;;;;;29.75;5.72;;;;;;;10.85;66.01;102422.91;5045770;28;20044;-54
2022/02/23 09:58:47;;;;;;;23.88;5.32;;;;;;;10.97;65.96;102413.69;5047170;28;20377;-54
2022/02/23 10:01:14;;;;;;;25.58;6.13;;;;;;;10.82;66.05;102412.44;5044111;28;20036;-55
2022/02/23 10:03:42;;;;;;;20.67;5.28;;;;;;;10.92;66.51;102405.19;5045815;28;20021;-53
2022/02/23 10:06:17;;;;;;;21.25;4.75;;;;;;;11.76;64.47;102410.50;5048145;28;20060;-54
2022/02/23 10:08:42;;;;;;;24.50;5.22;;;;;;;11.60;65.14;102416.53;5049528;28;20104;-54
2022/02/23 10:11:17;;;;;;;22.92;4.80;;;;;;;11.48;64.28;102406.09;5048086;28;20124;-55
2022/02/23 10:13:50;;;;;;;27.77;5.40;;;;;;;11.16;64.30;102419.03;5051458;28;20489;-53
2022/02/23 10:16:16;;;;;;;20.33;4.38;;;;;;;10.94;66.19;102420.22;5045557;28;20084;-53
2022/02/23 10:18:41;;;;;;;29.73;4.60;;;;;;;11.25;65.87;102413.75;5046859;28;20476;-55
2022/02/23 10:21:07;;;;;;;23.75;5.07;;;;;;;11.10;65.13;102421.44;5047262;28;20029;-53
2022/02/23 10:23:33;;;;;;;30.90;5.53;;;;;;;10.63;66.88;102411.47;5045819;28;20029;-53
2022/02/23 10:26:04;;;;;;;21.45;4.65;;;;;;;10.81;65.97;102413.44;5046908;28;20047;-52
2022/02/23 10:28:32;;;;;;;32.80;5.13;;;;;;;11.15;65.67;102422.69;5045075;28;20039;-54
2022/02/23 10:31:00;;;;;;;29.48;5.03;;;;;;;10.95;65.69;102411.16;5049097;28;20061;-51
2022/02/23 10:33:26;;;;;;;30.95;4.68;;;;;;;10.95;66.47;102412.97;5050338;28;20487;-51
2022/02/23 10:35:53;;;;;;;18.75;3.30;;;;;;;10.88;65.37;102411.88;5049162;28;20103;-53
2022/02/23 10:38:20;;;;;;;25.95;4.95;;;;;;;10.85;65.70;102406.75;5050466;28;20029;-54
2022/02/23 10:40:46;;;;;;;29.50;4.22;;;;;;;10.97;65.94;102416.38;5048160;28;20061;-54
2022/02/23 10:43:25;;;;;;;18.23;3.53;;;;;;;10.94;64.02;102417.50;5041473;28;20043;-55
2022/02/23 10:46:05;;;;;;;27.15;4.00;;;;;;;10.96;63.74;102412.00;5046580;28;20391;-52
2022/02/23 10:48:37;;;;;;;28.98;4.20;;;;;;;10.87;63.29;102416.38;5048720;28;20115;-54
2022/02/23 10:51:03;;;;;;;26.50;4.60;;;;;;;11.20;63.34;102406.09;5050554;28;20052;-53
2022/02/23 10:53:31;;;;;;;26.80;4.45;;;;;;;11.88;61.79;102413.03;5048469;28;20029;-53
2022/02/23 10:55:57;;;;;;;23.10;4.20;;;;;;;11.81;60.47;102412.75;5048094;28;20023;-54
2022/02/23 10:58:27;;;;;;;17.38;3.35;;;;;;;11.66;61.05;102404.31;5046782;28;20040;-54
2022/02/23 11:01:02;;;;;;;22.02;4.18;;;;;;;11.17;62.14;102415.31;5046174;28;20028;-54
2022/02/23 11:03:28;;;;;;;24.05;3.95;;;;;;;10.94;63.56;102403.22;5046700;28;20025;-51
2022/02/23 11:05:53;;;;;;;19.25;3.53;;;;;;;10.96;62.32;102412.84;5045187;28;20035;-53
2022/02/23 11:08:21;;;;;;;21.17;4.00;;;;;;;10.97;62.65;102403.75;5046394;28;20029;-54
2022/02/23 11:10:49;;;;;;;27.80;4.10;;;;;;;11.39;62.89;102407.84;5047112;28;20044;-51
2022/02/23 11:13:17;;;;;;;28.58;4.07;;;;;;;11.42;61.34;102396.78;5044337;28;20025;-52
2022/02/23 11:15:44;;;;;;;23.08;4.20;;;;;;;10.98;61.91;102416.25;5043431;28;20036;-54
2022/02/23 11:18:12;;;;;;;19.45;3.45;;;;;;;10.93;62.91;102391.59;5048921;28;20433;-53
2022/02/23 11:20:39;;;;;;;19.73;3.40;;;;;;;11.03;62.07;102391.53;5049709;28;20025;-53
2022/02/23 11:23:05;;;;;;;21.02;4.00;;;;;;;11.35;63.30;102385.75;5050098;28;20033;-54